createdAt,value
2018-07-28T00:00:00.986Z,931.32
2018-07-28T00:00:13.989Z,931.27
2018-07-28T00:00:26.549Z,931.29
2018-07-28T00:00:38.613Z,931.28
2018-07-28T00:00:51.149Z,931.26
2018-07-28T00:01:03.191Z,931.28
2018-07-28T00:01:16.163Z,931.29
2018-07-28T00:01:28.184Z,931.27
2018-07-28T00:01:40.696Z,931.27
2018-07-28T00:01:53.688Z,931.27
2018-07-28T00:02:06.644Z,931.27
2018-07-28T00:02:19.579Z,931.25
2018-07-28T00:02:32.511Z,931.27
2018-07-28T00:02:44.098Z,931.26
2018-07-28T00:02:56.142Z,931.28
2018-07-28T00:03:08.693Z,931.27
2018-07-28T00:03:21.653Z,931.27
2018-07-28T00:03:34.141Z,931.3
2018-07-28T00:03:46.601Z,931.27
2018-07-28T00:03:59.053Z,931.25
2018-07-28T00:04:11.625Z,931.27
2018-07-28T00:04:24.617Z,931.32
2018-07-28T00:04:37.541Z,931.3
2018-07-28T00:04:50.522Z,931.27
2018-07-28T00:05:02.547Z,931.27
2018-07-28T00:05:15.060Z,931.28
2018-07-28T00:05:27.516Z,931.28
2018-07-28T00:05:40.477Z,931.34
2018-07-28T00:05:53.434Z,931.29
2018-07-28T00:06:05.421Z,931.3
2018-07-28T00:06:17.910Z,931.33
2018-07-28T00:06:30.490Z,931.29
2018-07-28T00:06:43.475Z,931.31
2018-07-28T00:06:56.369Z,931.3
2018-07-28T00:07:08.821Z,931.29
2018-07-28T00:07:22.761Z,931.28
2018-07-28T00:07:35.777Z,931.32
2018-07-28T00:07:48.303Z,931.32
2018-07-28T00:08:00.380Z,931.29
2018-07-28T00:08:13.340Z,931.3
2018-07-28T00:08:25.898Z,931.35
2018-07-28T00:08:38.485Z,931.33
2018-07-28T00:08:50.950Z,931.3
2018-07-28T00:09:03.929Z,931.31
2018-07-28T00:09:16.894Z,931.3
2018-07-28T00:09:28.997Z,931.29
2018-07-28T00:09:41.450Z,931.29
2018-07-28T00:09:54.378Z,931.32
2018-07-28T00:10:07.367Z,931.31
2018-07-28T00:10:20.343Z,931.31
2018-07-28T00:10:33.338Z,931.32
2018-07-28T00:10:44.880Z,931.34
2018-07-28T00:10:57.848Z,931.33
2018-07-28T00:11:09.849Z,931.33
2018-07-28T00:11:22.821Z,931.31
2018-07-28T00:11:35.328Z,931.29
2018-07-28T00:11:47.360Z,931.31
2018-07-28T00:12:00.275Z,931.31
2018-07-28T00:12:12.356Z,931.32
2018-07-28T00:12:25.308Z,931.31
2018-07-28T00:12:37.812Z,931.27
2018-07-28T00:12:50.767Z,931.34
2018-07-28T00:13:03.292Z,931.32
2018-07-28T00:13:16.201Z,931.29
2018-07-28T00:13:29.176Z,931.29
2018-07-28T00:13:41.670Z,931.32
2018-07-28T00:13:54.604Z,931.3
2018-07-28T00:14:07.126Z,931.32
2018-07-28T00:14:19.617Z,931.32
2018-07-28T00:14:31.670Z,931.32
2018-07-28T00:14:44.147Z,931.31
2018-07-28T00:14:57.062Z,931.32
2018-07-28T00:15:08.626Z,931.33
2018-07-28T00:15:21.570Z,931.34
2018-07-28T00:15:34.064Z,931.34
2018-07-28T00:15:47.032Z,931.3
2018-07-28T00:16:00.007Z,931.34
2018-07-28T00:16:12.904Z,931.34
2018-07-28T00:16:25.457Z,931.31
2018-07-28T00:16:37.946Z,931.34
2018-07-28T00:16:50.925Z,931.29
2018-07-28T00:17:02.957Z,931.33
2018-07-28T00:17:14.997Z,931.29
2018-07-28T00:17:27.987Z,931.33
2018-07-28T00:17:40.967Z,931.32
2018-07-28T00:17:53.463Z,931.32
2018-07-28T00:18:05.948Z,931.31
2018-07-28T00:18:18.452Z,931.33
2018-07-28T00:18:30.947Z,931.34
2018-07-28T00:18:43.944Z,931.35
2018-07-28T00:18:56.395Z,931.34
2018-07-28T00:19:07.972Z,931.32
2018-07-28T00:19:20.454Z,931.33
2018-07-28T00:19:31.990Z,931.34
2018-07-28T00:19:44.998Z,931.36
2018-07-28T00:19:57.041Z,931.36
2018-07-28T00:20:09.121Z,931.33
2018-07-28T00:20:21.652Z,931.33
2018-07-28T00:20:34.212Z,931.33
2018-07-28T00:20:46.308Z,931.33
2018-07-28T00:20:58.351Z,931.37
2018-07-28T00:21:11.319Z,931.32
2018-07-28T00:21:24.225Z,931.39
2018-07-28T00:21:37.239Z,931.33
2018-07-28T00:21:49.790Z,931.29
2018-07-28T00:22:02.284Z,931.37
2018-07-28T00:22:14.781Z,931.33
2018-07-28T00:22:28.582Z,931.36
2018-07-28T00:22:41.526Z,931.38
2018-07-28T00:22:54.014Z,931.37
2018-07-28T00:23:06.468Z,931.4
2018-07-28T00:23:19.379Z,931.4
2018-07-28T00:23:32.341Z,931.4
2018-07-28T00:23:44.472Z,931.37
2018-07-28T00:23:56.089Z,931.39
2018-07-28T00:24:08.106Z,931.43
2018-07-28T00:24:20.617Z,931.43
2018-07-28T00:24:32.595Z,931.43
2018-07-28T00:24:45.105Z,931.41
2018-07-28T00:24:58.089Z,931.44
2018-07-28T00:25:10.630Z,931.46
2018-07-28T00:25:23.147Z,931.44
2018-07-28T00:25:35.181Z,931.43
2018-07-28T00:25:47.703Z,931.43
2018-07-28T00:26:00.190Z,931.43
2018-07-28T00:26:13.187Z,931.44
2018-07-28T00:26:25.674Z,931.43
2018-07-28T00:26:38.195Z,931.46
2018-07-28T00:26:51.153Z,931.43
2018-07-28T00:27:02.730Z,931.44
2018-07-28T00:27:14.799Z,931.44
2018-07-28T00:27:27.241Z,931.47
2018-07-28T00:27:39.303Z,931.45
2018-07-28T00:27:51.802Z,931.47
2018-07-28T00:28:04.253Z,931.48
2018-07-28T00:28:16.746Z,931.47
2018-07-28T00:28:28.803Z,931.49
2018-07-28T00:28:41.716Z,931.52
2018-07-28T00:28:54.700Z,931.51
2018-07-28T00:29:07.230Z,931.49
2018-07-28T00:29:19.691Z,931.5
2018-07-28T00:29:32.700Z,931.47
2018-07-28T00:29:45.683Z,931.5
2018-07-28T00:29:58.658Z,931.5
2018-07-28T00:30:11.213Z,931.5
2018-07-28T00:30:24.203Z,931.53
2018-07-28T00:30:36.660Z,931.5
2018-07-28T00:30:48.685Z,931.51
2018-07-28T00:31:01.185Z,931.51
2018-07-28T00:31:14.107Z,931.55
2018-07-28T00:31:27.018Z,931.51
2018-07-28T00:31:39.955Z,931.55
2018-07-28T00:31:52.928Z,931.53
2018-07-28T00:32:05.934Z,931.5
2018-07-28T00:32:18.907Z,931.53
2018-07-28T00:32:31.838Z,931.52
2018-07-28T00:32:44.783Z,931.54
2018-07-28T00:32:57.736Z,931.55
2018-07-28T00:33:10.723Z,931.58
2018-07-28T00:33:23.200Z,931.55
2018-07-28T00:33:35.648Z,931.55
2018-07-28T00:33:47.685Z,931.55
2018-07-28T00:34:00.679Z,931.56
2018-07-28T00:34:13.234Z,931.53
2018-07-28T00:34:25.733Z,931.54
2018-07-28T00:34:38.634Z,931.55
2018-07-28T00:34:51.164Z,931.57
2018-07-28T00:35:03.172Z,931.54
2018-07-28T00:35:16.163Z,931.54
2018-07-28T00:35:28.606Z,931.57
2018-07-28T00:35:41.138Z,931.56
2018-07-28T00:35:53.201Z,931.61
2018-07-28T00:36:05.267Z,931.59
2018-07-28T00:36:17.323Z,931.6
2018-07-28T00:36:30.336Z,931.58
2018-07-28T00:36:42.351Z,931.6
2018-07-28T00:36:54.368Z,931.59
2018-07-28T00:37:06.850Z,931.58
2018-07-28T00:37:19.327Z,931.61
2018-07-28T00:37:33.190Z,931.61
2018-07-28T00:37:45.672Z,931.6
2018-07-28T00:37:58.143Z,931.61
2018-07-28T00:38:10.645Z,931.61
2018-07-28T00:38:23.585Z,931.64
2018-07-28T00:38:36.575Z,931.6
2018-07-28T00:38:49.129Z,931.65
2018-07-28T00:39:01.122Z,931.63
2018-07-28T00:39:14.020Z,931.59
2018-07-28T00:39:26.542Z,931.65
2018-07-28T00:39:39.533Z,931.64
2018-07-28T00:39:52.033Z,931.65
2018-07-28T00:40:04.512Z,931.64
2018-07-28T00:40:17.034Z,931.62
2018-07-28T00:40:29.932Z,931.67
2018-07-28T00:40:41.968Z,931.66
2018-07-28T00:40:54.894Z,931.64
2018-07-28T00:41:07.478Z,931.68
2018-07-28T00:41:19.923Z,931.68
2018-07-28T00:41:32.940Z,931.65
2018-07-28T00:41:45.883Z,931.67
2018-07-28T00:41:58.866Z,931.65
2018-07-28T00:42:09.949Z,931.66
2018-07-28T00:42:22.458Z,931.67
2018-07-28T00:42:35.464Z,931.67
2018-07-28T00:42:48.467Z,931.67
2018-07-28T00:43:01.478Z,931.67
2018-07-28T00:43:14.425Z,931.69
2018-07-28T00:43:27.479Z,931.7
2018-07-28T00:43:39.963Z,931.67
2018-07-28T00:43:52.440Z,931.67
2018-07-28T00:44:05.373Z,931.69
2018-07-28T00:44:17.414Z,931.7
2018-07-28T00:44:29.944Z,931.64
2018-07-28T00:44:42.018Z,931.62
2018-07-28T00:44:54.525Z,931.64
2018-07-28T00:45:07.519Z,931.66
2018-07-28T00:45:20.427Z,931.67
2018-07-28T00:45:32.927Z,931.66
2018-07-28T00:45:45.892Z,931.68
2018-07-28T00:45:58.822Z,931.68
2018-07-28T00:46:11.791Z,931.62
2018-07-28T00:46:24.783Z,931.68
2018-07-28T00:46:37.293Z,931.68
2018-07-28T00:46:49.841Z,931.64
2018-07-28T00:47:02.375Z,931.66
2018-07-28T00:47:13.931Z,931.64
2018-07-28T00:47:26.412Z,931.67
2018-07-28T00:47:38.972Z,931.7
2018-07-28T00:47:51.431Z,931.67
2018-07-28T00:48:04.441Z,931.73
2018-07-28T00:48:17.412Z,931.7
2018-07-28T00:48:29.888Z,931.68
2018-07-28T00:48:42.861Z,931.72
2018-07-28T00:48:55.383Z,931.7
2018-07-28T00:49:07.915Z,931.73
2018-07-28T00:49:20.909Z,931.72
2018-07-28T00:49:33.902Z,931.71
2018-07-28T00:49:46.406Z,931.73
2018-07-28T00:49:59.429Z,931.73
2018-07-28T00:50:11.960Z,931.72
2018-07-28T00:50:24.443Z,931.73
2018-07-28T00:50:37.442Z,931.75
2018-07-28T00:50:49.503Z,931.75
2018-07-28T00:51:01.516Z,931.78
2018-07-28T00:51:14.014Z,931.73
2018-07-28T00:51:26.476Z,931.76
2018-07-28T00:51:38.982Z,931.74
2018-07-28T00:51:51.565Z,931.76
2018-07-28T00:52:03.145Z,931.76
2018-07-28T00:52:15.590Z,931.79
2018-07-28T00:52:28.117Z,931.78
2018-07-28T00:52:41.413Z,931.74
2018-07-28T00:52:54.352Z,931.82
2018-07-28T00:53:07.292Z,931.77
2018-07-28T00:53:18.854Z,931.8
2018-07-28T00:53:31.291Z,931.82
2018-07-28T00:53:43.750Z,931.81
2018-07-28T00:53:56.675Z,931.8
2018-07-28T00:54:08.739Z,931.82
2018-07-28T00:54:21.786Z,931.81
2018-07-28T00:54:34.285Z,931.8
2018-07-28T00:54:47.250Z,931.82
2018-07-28T00:55:00.253Z,931.82
2018-07-28T00:55:12.757Z,931.83
2018-07-28T00:55:25.322Z,931.82
2018-07-28T00:55:37.816Z,931.84
2018-07-28T00:55:50.331Z,931.85
2018-07-28T00:56:03.313Z,931.87
2018-07-28T00:56:15.877Z,931.89
2018-07-28T00:56:28.398Z,931.85
2018-07-28T00:56:41.394Z,931.82
2018-07-28T00:56:54.357Z,931.85
2018-07-28T00:57:06.788Z,931.91
2018-07-28T00:57:19.344Z,931.86
2018-07-28T00:57:32.305Z,931.87
2018-07-28T00:57:44.826Z,931.88
2018-07-28T00:57:57.769Z,931.88
2018-07-28T00:58:10.271Z,931.9
2018-07-28T00:58:23.287Z,931.84
2018-07-28T00:58:36.204Z,931.89
2018-07-28T00:58:48.717Z,931.88
2018-07-28T00:59:01.701Z,931.89
2018-07-28T00:59:14.721Z,931.91
2018-07-28T00:59:27.715Z,931.9
2018-07-28T00:59:40.202Z,931.86
2018-07-28T00:59:52.721Z,931.89
2018-07-28T01:00:05.255Z,931.86
2018-07-28T01:00:17.297Z,931.88
2018-07-28T01:00:30.300Z,931.84
2018-07-28T01:00:43.241Z,931.87
2018-07-28T01:00:55.201Z,931.9
2018-07-28T01:01:07.669Z,931.87
2018-07-28T01:01:20.619Z,931.87
2018-07-28T01:01:33.099Z,931.87
2018-07-28T01:01:46.130Z,931.84
2018-07-28T01:01:59.126Z,931.88
2018-07-28T01:02:12.078Z,931.87
2018-07-28T01:02:24.665Z,931.89
2018-07-28T01:02:37.578Z,931.86
2018-07-28T01:02:50.504Z,931.84
2018-07-28T01:03:02.535Z,931.87
2018-07-28T01:03:15.533Z,931.86
2018-07-28T01:03:28.467Z,931.83
2018-07-28T01:03:41.459Z,931.86
2018-07-28T01:03:54.414Z,931.88
2018-07-28T01:04:07.434Z,931.89
2018-07-28T01:04:20.358Z,931.86
2018-07-28T01:04:32.831Z,931.88
2018-07-28T01:04:45.348Z,931.88
2018-07-28T01:04:57.803Z,931.86
2018-07-28T01:05:10.790Z,931.88
2018-07-28T01:05:23.732Z,931.91
2018-07-28T01:05:36.721Z,931.85
2018-07-28T01:05:49.708Z,931.88
2018-07-28T01:06:02.235Z,931.85
2018-07-28T01:06:14.293Z,931.94
2018-07-28T01:06:26.344Z,931.93
2018-07-28T01:06:39.261Z,931.85
2018-07-28T01:06:52.218Z,931.89
2018-07-28T01:07:05.210Z,931.89
2018-07-28T01:07:17.175Z,931.89
2018-07-28T01:07:30.109Z,931.88
2018-07-28T01:07:43.369Z,931.9
2018-07-28T01:07:55.380Z,931.89
2018-07-28T01:08:07.911Z,931.9
2018-07-28T01:08:20.424Z,931.89
2018-07-28T01:08:33.439Z,931.91
2018-07-28T01:08:46.443Z,931.88
2018-07-28T01:08:59.377Z,931.88
2018-07-28T01:09:10.943Z,931.88
2018-07-28T01:09:23.442Z,931.92
2018-07-28T01:09:35.938Z,931.89
2018-07-28T01:09:47.947Z,931.91
2018-07-28T01:10:00.481Z,931.9
2018-07-28T01:10:13.408Z,931.92
2018-07-28T01:10:25.929Z,931.91
2018-07-28T01:10:38.443Z,931.89
2018-07-28T01:10:50.891Z,931.93
2018-07-28T01:11:02.909Z,931.9
2018-07-28T01:11:14.932Z,931.91
2018-07-28T01:11:27.490Z,931.9
2018-07-28T01:11:40.501Z,931.9
2018-07-28T01:11:53.443Z,931.88
2018-07-28T01:12:05.928Z,931.89
2018-07-28T01:12:18.425Z,931.88
2018-07-28T01:12:30.987Z,931.88
2018-07-28T01:12:43.467Z,931.88
2018-07-28T01:12:55.924Z,931.88
2018-07-28T01:13:08.445Z,931.89
2018-07-28T01:13:21.392Z,931.88
2018-07-28T01:13:33.830Z,931.89
2018-07-28T01:13:46.325Z,931.87
2018-07-28T01:13:58.421Z,931.82
2018-07-28T01:14:10.937Z,931.87
2018-07-28T01:14:23.893Z,931.88
2018-07-28T01:14:36.889Z,931.85
2018-07-28T01:14:49.364Z,931.84
2018-07-28T01:15:01.836Z,931.84
2018-07-28T01:15:13.854Z,931.83
2018-07-28T01:15:26.795Z,931.81
2018-07-28T01:15:38.847Z,931.85
2018-07-28T01:15:51.416Z,931.83
2018-07-28T01:16:04.375Z,931.83
2018-07-28T01:16:16.392Z,931.83
2018-07-28T01:16:29.379Z,931.83
2018-07-28T01:16:41.436Z,931.84
2018-07-28T01:16:53.912Z,931.85
2018-07-28T01:17:06.392Z,931.83
2018-07-28T01:17:18.411Z,931.84
2018-07-28T01:17:30.439Z,931.81
2018-07-28T01:17:43.394Z,931.82
2018-07-28T01:17:55.389Z,931.85
2018-07-28T01:18:07.478Z,931.82
2018-07-28T01:18:19.484Z,931.85
2018-07-28T01:18:31.996Z,931.81
2018-07-28T01:18:44.982Z,931.84
2018-07-28T01:18:57.960Z,931.8
2018-07-28T01:19:10.937Z,931.82
2018-07-28T01:19:23.423Z,931.81
2018-07-28T01:19:36.420Z,931.85
2018-07-28T01:19:48.468Z,931.83
2018-07-28T01:20:00.933Z,931.82
2018-07-28T01:20:13.873Z,931.85
2018-07-28T01:20:26.365Z,931.87
2018-07-28T01:20:38.398Z,931.85
2018-07-28T01:20:51.403Z,931.86
2018-07-28T01:21:04.416Z,931.88
2018-07-28T01:21:16.890Z,931.86
2018-07-28T01:21:29.388Z,931.87
2018-07-28T01:21:42.356Z,931.89
2018-07-28T01:21:54.909Z,931.87
2018-07-28T01:22:07.830Z,931.89
2018-07-28T01:22:20.828Z,931.86
2018-07-28T01:22:33.757Z,931.9
2018-07-28T01:22:47.043Z,931.87
2018-07-28T01:23:00.011Z,931.92
2018-07-28T01:23:12.986Z,931.9
2018-07-28T01:23:25.044Z,931.87
2018-07-28T01:23:37.479Z,931.87
2018-07-28T01:23:49.519Z,931.88
2018-07-28T01:24:01.997Z,931.89
2018-07-28T01:24:14.505Z,931.91
2018-07-28T01:24:26.969Z,931.89
2018-07-28T01:24:39.958Z,931.87
2018-07-28T01:24:52.062Z,931.9
2018-07-28T01:25:05.005Z,931.9
2018-07-28T01:25:17.537Z,931.91
2018-07-28T01:25:30.506Z,931.86
2018-07-28T01:25:43.427Z,931.89
2018-07-28T01:25:55.498Z,931.89
2018-07-28T01:26:08.030Z,931.91
2018-07-28T01:26:20.996Z,931.89
2018-07-28T01:26:33.518Z,931.88
2018-07-28T01:26:46.455Z,931.89
2018-07-28T01:26:59.432Z,931.9
2018-07-28T01:27:11.912Z,931.87
2018-07-28T01:27:24.932Z,931.86
2018-07-28T01:27:37.375Z,931.89
2018-07-28T01:27:49.878Z,931.87
2018-07-28T01:28:02.403Z,931.85
2018-07-28T01:28:15.364Z,931.86
2018-07-28T01:28:28.331Z,931.84
2018-07-28T01:28:41.317Z,931.84
2018-07-28T01:28:54.255Z,931.87
2018-07-28T01:29:07.203Z,931.86
2018-07-28T01:29:19.692Z,931.85
2018-07-28T01:29:32.644Z,931.84
2018-07-28T01:29:45.639Z,931.88
2018-07-28T01:29:58.597Z,931.87
2018-07-28T01:30:11.068Z,931.87
2018-07-28T01:30:23.997Z,931.87
2018-07-28T01:30:36.976Z,931.88
2018-07-28T01:30:49.411Z,931.88
2018-07-28T01:31:02.407Z,931.91
2018-07-28T01:31:14.428Z,931.89
2018-07-28T01:31:27.399Z,931.9
2018-07-28T01:31:40.336Z,931.85
2018-07-28T01:31:52.862Z,931.89
2018-07-28T01:32:04.921Z,931.91
2018-07-28T01:32:17.823Z,931.88
2018-07-28T01:32:30.795Z,931.91
2018-07-28T01:32:43.829Z,931.88
2018-07-28T01:32:56.362Z,931.86
2018-07-28T01:33:09.334Z,931.9
2018-07-28T01:33:21.380Z,931.93
2018-07-28T01:33:33.440Z,931.87
2018-07-28T01:33:45.949Z,931.91
2018-07-28T01:33:58.427Z,931.9
2018-07-28T01:34:11.335Z,931.92
2018-07-28T01:34:24.346Z,931.95
2018-07-28T01:34:36.843Z,931.95
2018-07-28T01:34:48.925Z,931.91
2018-07-28T01:35:01.468Z,931.94
2018-07-28T01:35:14.461Z,931.95
2018-07-28T01:35:27.515Z,931.95
2018-07-28T01:35:40.050Z,931.93
2018-07-28T01:35:53.044Z,931.9
2018-07-28T01:36:05.515Z,931.93
2018-07-28T01:36:18.441Z,931.9
2018-07-28T01:36:30.961Z,931.92
2018-07-28T01:36:43.953Z,931.92
2018-07-28T01:36:56.460Z,931.91
2018-07-28T01:37:08.991Z,931.87
2018-07-28T01:37:21.943Z,931.91
2018-07-28T01:37:34.476Z,931.89
2018-07-28T01:37:47.427Z,931.88
2018-07-28T01:38:00.219Z,931.89
2018-07-28T01:38:13.192Z,931.89
2018-07-28T01:38:26.200Z,931.89
2018-07-28T01:38:38.749Z,931.88
2018-07-28T01:38:51.712Z,931.86
2018-07-28T01:39:04.261Z,931.9
2018-07-28T01:39:17.248Z,931.89
2018-07-28T01:39:30.248Z,931.9
2018-07-28T01:39:43.183Z,931.87
2018-07-28T01:39:55.729Z,931.9
2018-07-28T01:40:08.734Z,931.9
2018-07-28T01:40:21.734Z,931.89
2018-07-28T01:40:34.283Z,931.9
2018-07-28T01:40:47.310Z,931.91
2018-07-28T01:41:00.301Z,931.92
2018-07-28T01:41:12.880Z,931.91
2018-07-28T01:41:24.905Z,931.91
2018-07-28T01:41:37.873Z,931.92
2018-07-28T01:41:50.831Z,931.91
2018-07-28T01:42:03.825Z,931.94
2018-07-28T01:42:16.819Z,931.94
2018-07-28T01:42:29.792Z,931.94
2018-07-28T01:42:42.735Z,931.94
2018-07-28T01:42:55.285Z,931.94
2018-07-28T01:43:08.221Z,931.93
2018-07-28T01:43:20.774Z,931.97
2018-07-28T01:43:32.789Z,931.91
2018-07-28T01:43:44.288Z,931.95
2018-07-28T01:43:57.212Z,931.94
2018-07-28T01:44:09.751Z,931.95
2018-07-28T01:44:22.771Z,931.93
2018-07-28T01:44:34.794Z,931.96
2018-07-28T01:44:47.794Z,931.94
2018-07-28T01:45:00.353Z,931.93
2018-07-28T01:45:13.303Z,931.95
2018-07-28T01:45:24.911Z,931.95
2018-07-28T01:45:37.936Z,931.95
2018-07-28T01:45:50.874Z,931.91
2018-07-28T01:46:03.402Z,931.92
2018-07-28T01:46:15.888Z,931.92
2018-07-28T01:46:28.356Z,931.93
2018-07-28T01:46:40.395Z,931.95
2018-07-28T01:46:52.956Z,931.91
2018-07-28T01:47:05.433Z,931.93
2018-07-28T01:47:17.964Z,931.95
2018-07-28T01:47:30.461Z,931.92
2018-07-28T01:47:42.480Z,931.94
2018-07-28T01:47:55.662Z,931.92
2018-07-28T01:48:08.183Z,931.91
2018-07-28T01:48:21.144Z,931.93
2018-07-28T01:48:33.721Z,931.94
2018-07-28T01:48:45.791Z,931.95
2018-07-28T01:48:58.786Z,931.96
2018-07-28T01:49:11.285Z,931.92
2018-07-28T01:49:24.292Z,931.97
2018-07-28T01:49:37.492Z,931.94
2018-07-28T01:49:49.538Z,931.92
2018-07-28T01:50:02.076Z,931.95
2018-07-28T01:50:14.544Z,931.99
2018-07-28T01:50:27.049Z,931.93
2018-07-28T01:50:40.021Z,931.96
2018-07-28T01:50:52.581Z,931.96
2018-07-28T01:51:05.547Z,931.92
2018-07-28T01:51:17.616Z,932
2018-07-28T01:51:30.122Z,931.95
2018-07-28T01:51:42.680Z,931.95
2018-07-28T01:51:55.193Z,931.95
2018-07-28T01:52:08.145Z,931.94
2018-07-28T01:52:21.065Z,931.97
2018-07-28T01:52:34.047Z,932
2018-07-28T01:52:46.999Z,931.98
2018-07-28T01:52:59.431Z,931.99
2018-07-28T01:53:12.398Z,931.97
2018-07-28T01:53:24.934Z,931.99
2018-07-28T01:53:37.934Z,931.99
2018-07-28T01:53:50.901Z,931.97
2018-07-28T01:54:03.467Z,931.96
2018-07-28T01:54:16.464Z,931.97
2018-07-28T01:54:28.467Z,931.95
2018-07-28T01:54:41.494Z,931.94
2018-07-28T01:54:53.981Z,931.93
2018-07-28T01:55:06.517Z,931.95
2018-07-28T01:55:19.450Z,931.92
2018-07-28T01:55:31.923Z,931.92
2018-07-28T01:55:44.921Z,931.91
2018-07-28T01:55:57.442Z,931.94
2018-07-28T01:56:10.402Z,931.91
2018-07-28T01:56:22.450Z,931.89
2018-07-28T01:56:35.414Z,931.91
2018-07-28T01:56:47.980Z,931.89
2018-07-28T01:57:00.976Z,931.87
2018-07-28T01:57:13.514Z,931.94
2018-07-28T01:57:26.550Z,931.89
2018-07-28T01:57:39.514Z,931.86
2018-07-28T01:57:52.505Z,931.87
2018-07-28T01:58:04.541Z,931.88
2018-07-28T01:58:17.062Z,931.89
2018-07-28T01:58:30.008Z,931.88
2018-07-28T01:58:42.501Z,931.88
2018-07-28T01:58:54.984Z,931.85
2018-07-28T01:59:06.999Z,931.85
2018-07-28T01:59:19.923Z,931.9
2018-07-28T01:59:32.427Z,931.87
2018-07-28T01:59:44.953Z,931.88
2018-07-28T01:59:58.147Z,931.85
2018-07-28T02:00:10.200Z,931.87
2018-07-28T02:00:23.176Z,931.86
2018-07-28T02:00:36.196Z,931.86
2018-07-28T02:00:49.158Z,931.87
2018-07-28T02:01:01.689Z,931.87
2018-07-28T02:01:14.233Z,931.83
2018-07-28T02:01:27.220Z,931.88
2018-07-28T02:01:39.759Z,931.9
2018-07-28T02:01:52.253Z,931.87
2018-07-28T02:02:04.358Z,931.86
2018-07-28T02:02:17.328Z,931.89
2018-07-28T02:02:30.315Z,931.85
2018-07-28T02:02:42.819Z,931.88
2018-07-28T02:02:55.355Z,931.88
2018-07-28T02:03:06.555Z,931.87
2018-07-28T02:03:19.549Z,931.84
2018-07-28T02:03:32.050Z,931.91
2018-07-28T02:03:44.576Z,931.87
2018-07-28T02:03:56.151Z,931.87
2018-07-28T02:04:08.713Z,931.88
2018-07-28T02:04:21.662Z,931.88
2018-07-28T02:04:34.601Z,931.84
2018-07-28T02:04:46.658Z,931.86
2018-07-28T02:04:59.146Z,931.86
2018-07-28T02:05:11.705Z,931.85
2018-07-28T02:05:24.603Z,931.83
2018-07-28T02:05:37.622Z,931.86
2018-07-28T02:05:49.683Z,931.84
2018-07-28T02:06:02.675Z,931.82
2018-07-28T02:06:15.096Z,931.82
2018-07-28T02:06:27.656Z,931.8
2018-07-28T02:06:40.654Z,931.81
2018-07-28T02:06:53.622Z,931.8
2018-07-28T02:07:06.557Z,931.79
2018-07-28T02:07:18.561Z,931.78
2018-07-28T02:07:31.057Z,931.79
2018-07-28T02:07:44.019Z,931.79
2018-07-28T02:07:56.948Z,931.79
2018-07-28T02:08:10.421Z,931.78
2018-07-28T02:08:22.949Z,931.76
2018-07-28T02:08:35.953Z,931.79
2018-07-28T02:08:48.476Z,931.8
2018-07-28T02:09:01.482Z,931.78
2018-07-28T02:09:13.941Z,931.75
2018-07-28T02:09:25.969Z,931.76
2018-07-28T02:09:37.997Z,931.77
2018-07-28T02:09:50.967Z,931.76
2018-07-28T02:10:03.465Z,931.73
2018-07-28T02:10:16.471Z,931.75
2018-07-28T02:10:28.047Z,931.77
2018-07-28T02:10:40.521Z,931.75
2018-07-28T02:10:53.452Z,931.77
2018-07-28T02:11:06.341Z,931.77
2018-07-28T02:11:19.300Z,931.76
2018-07-28T02:11:32.236Z,931.75
2018-07-28T02:11:45.172Z,931.74
2018-07-28T02:11:57.721Z,931.75
2018-07-28T02:12:10.223Z,931.74
2018-07-28T02:12:23.211Z,931.74
2018-07-28T02:12:36.125Z,931.73
2018-07-28T02:12:49.091Z,931.76
2018-07-28T02:13:01.162Z,931.73
2018-07-28T02:13:13.610Z,931.75
2018-07-28T02:13:26.606Z,931.75
2018-07-28T02:13:39.546Z,931.74
2018-07-28T02:13:52.535Z,931.75
2018-07-28T02:14:05.018Z,931.72
2018-07-28T02:14:16.644Z,931.72
2018-07-28T02:14:28.659Z,931.74
2018-07-28T02:14:41.262Z,931.75
2018-07-28T02:14:54.242Z,931.74
2018-07-28T02:15:07.181Z,931.75
2018-07-28T02:15:20.127Z,931.77
2018-07-28T02:15:33.057Z,931.79
2018-07-28T02:15:45.509Z,931.77
2018-07-28T02:15:58.010Z,931.81
2018-07-28T02:16:10.533Z,931.78
2018-07-28T02:16:23.038Z,931.77
2018-07-28T02:16:35.523Z,931.8
2018-07-28T02:16:48.473Z,931.8
2018-07-28T02:17:00.892Z,931.81
2018-07-28T02:17:13.407Z,931.8
2018-07-28T02:17:26.357Z,931.82
2018-07-28T02:17:39.336Z,931.81
2018-07-28T02:17:52.314Z,931.79
2018-07-28T02:18:04.806Z,931.82
2018-07-28T02:18:17.797Z,931.8
2018-07-28T02:18:29.339Z,931.82
2018-07-28T02:18:42.294Z,931.81
2018-07-28T02:18:55.229Z,931.8
2018-07-28T02:19:08.201Z,931.8
2018-07-28T02:19:20.697Z,931.85
2018-07-28T02:19:33.218Z,931.81
2018-07-28T02:19:45.705Z,931.82
2018-07-28T02:19:57.714Z,931.84
2018-07-28T02:20:10.109Z,931.81
2018-07-28T02:20:22.644Z,931.85
2018-07-28T02:20:35.167Z,931.83
2018-07-28T02:20:48.198Z,931.82
2018-07-28T02:21:01.170Z,931.82
2018-07-28T02:21:13.656Z,931.83
2018-07-28T02:21:26.633Z,931.86
2018-07-28T02:21:39.635Z,931.84
2018-07-28T02:21:52.647Z,931.85
2018-07-28T02:22:05.172Z,931.81
2018-07-28T02:22:18.155Z,931.83
2018-07-28T02:22:30.172Z,931.81
2018-07-28T02:22:43.120Z,931.81
2018-07-28T02:22:55.640Z,931.8
2018-07-28T02:23:09.001Z,931.8
2018-07-28T02:23:21.020Z,931.82
2018-07-28T02:23:33.950Z,931.82
2018-07-28T02:23:46.431Z,931.8
2018-07-28T02:23:59.362Z,931.8
2018-07-28T02:24:11.823Z,931.82
2018-07-28T02:24:24.783Z,931.8
2018-07-28T02:24:37.784Z,931.8
2018-07-28T02:24:50.764Z,931.81
2018-07-28T02:25:03.278Z,931.78
2018-07-28T02:25:16.215Z,931.79
2018-07-28T02:25:28.758Z,931.81
2018-07-28T02:25:41.271Z,931.78
2018-07-28T02:25:54.252Z,931.77
2018-07-28T02:26:07.162Z,931.75
2018-07-28T02:26:19.733Z,931.79
2018-07-28T02:26:32.662Z,931.79
2018-07-28T02:26:45.620Z,931.79
2018-07-28T02:26:58.568Z,931.77
2018-07-28T02:27:11.527Z,931.79
2018-07-28T02:27:23.551Z,931.75
2018-07-28T02:27:36.544Z,931.78
2018-07-28T02:27:49.012Z,931.77
2018-07-28T02:28:01.498Z,931.76
2018-07-28T02:28:13.537Z,931.76
2018-07-28T02:28:26.521Z,931.79
2018-07-28T02:28:38.991Z,931.78
2018-07-28T02:28:52.210Z,931.77
2018-07-28T02:29:05.321Z,931.75
2018-07-28T02:29:18.306Z,931.78
2018-07-28T02:29:31.329Z,931.78
2018-07-28T02:29:43.873Z,931.78
2018-07-28T02:29:56.849Z,931.79
2018-07-28T02:30:09.343Z,931.8
2018-07-28T02:30:21.438Z,931.8
2018-07-28T02:30:34.395Z,931.79
2018-07-28T02:30:47.349Z,931.82
2018-07-28T02:30:59.876Z,931.81
2018-07-28T02:31:12.373Z,931.81
2018-07-28T02:31:24.940Z,931.84
2018-07-28T02:31:37.888Z,931.81
2018-07-28T02:31:49.476Z,931.79
2018-07-28T02:32:02.468Z,931.79
2018-07-28T02:32:14.963Z,931.84
2018-07-28T02:32:26.964Z,931.84
2018-07-28T02:32:39.956Z,931.81
2018-07-28T02:32:52.866Z,931.83
2018-07-28T02:33:04.908Z,931.83
2018-07-28T02:33:17.441Z,931.83
2018-07-28T02:33:29.938Z,931.82
2018-07-28T02:33:42.476Z,931.82
2018-07-28T02:33:55.487Z,931.86
2018-07-28T02:34:07.998Z,931.83
2018-07-28T02:34:21.012Z,931.83
2018-07-28T02:34:33.545Z,931.82
2018-07-28T02:34:46.509Z,931.85
2018-07-28T02:34:59.561Z,931.83
2018-07-28T02:35:12.042Z,931.85
2018-07-28T02:35:24.495Z,931.82
2018-07-28T02:35:36.982Z,931.83
2018-07-28T02:35:49.937Z,931.79
2018-07-28T02:36:02.497Z,931.84
2018-07-28T02:36:15.461Z,931.84
2018-07-28T02:36:28.475Z,931.85
2018-07-28T02:36:40.545Z,931.85
2018-07-28T02:36:53.052Z,931.85
2018-07-28T02:37:05.982Z,931.87
2018-07-28T02:37:18.435Z,931.85
2018-07-28T02:37:30.931Z,931.87
2018-07-28T02:37:43.939Z,931.82
2018-07-28T02:37:56.946Z,931.86
2018-07-28T02:38:09.500Z,931.86